sensor_id;sensor_type;location;lat;lon;timestamp;temperature;humidity
26037;DHT22;13810;48.376;10.944;2023-04-01T00:00:02;7.70;99.90
26037;DHT22;13810;48.376;10.944;2023-04-01T00:00:33;7.70;99.90
26037;DHT22;13810;48.376;10.944;2023-04-01T00:01:05;7.70;99.90
26037;DHT22;13810;48.376;10.944;2023-04-01T00:01:36;7.70;99.90
26037;DHT22;13810;48.376;10.944;2023-04-01T00:02:07;7.70;99.90
26037;DHT22;13810;48.376;10.944;2023-04-01T00:02:37;7.70;99.90
26037;DHT22;13810;48.376;10.944;2023-04-01T00:03:08;7.70;99.90
26037;DHT22;13810;48.376;10.944;2023-04-01T00:03:39;7.70;99.90
26037;DHT22;13810;48.376;10.944;2023-04-01T00:04:09;7.70;99.90
26037;DHT22;13810;48.376;10.944;2023-04-01T00:04:40;7.70;99.90
26037;DHT22;13810;48.376;10.944;2023-04-01T00:05:11;7.70;99.90
26037;DHT22;13810;48.376;10.944;2023-04-01T00:05:42;7.70;99.90
26037;DHT22;13810;48.376;10.944;2023-04-01T00:06:15;7.70;99.90
26037;DHT22;13810;48.376;10.944;2023-04-01T00:06:46;7.70;99.90
26037;DHT22;13810;48.376;10.944;2023-04-01T00:07:17;7.70;99.90
26037;DHT22;13810;48.376;10.944;2023-04-01T00:07:48;7.70;99.90
26037;DHT22;13810;48.376;10.944;2023-04-01T00:08:19;7.70;99.90
26037;DHT22;13810;48.376;10.944;2023-04-01T00:08:49;7.70;99.90
26037;DHT22;13810;48.376;10.944;2023-04-01T00:09:20;7.80;99.90
26037;DHT22;13810;48.376;10.944;2023-04-01T00:09:51;7.80;99.90
26037;DHT22;13810;48.376;10.944;2023-04-01T00:10:22;7.70;99.90
26037;DHT22;13810;48.376;10.944;2023-04-01T00:10:53;7.80;99.90
26037;DHT22;13810;48.376;10.944;2023-04-01T00:11:24;7.70;99.90
26037;DHT22;13810;48.376;10.944;2023-04-01T00:11:54;7.80;99.90
26037;DHT22;13810;48.376;10.944;2023-04-01T00:12:25;7.70;99.90
26037;DHT22;13810;48.376;10.944;2023-04-01T00:12:56;7.70;99.90
26037;DHT22;13810;48.376;10.944;2023-04-01T00:13:26;7.80;99.90
26037;DHT22;13810;48.376;10.944;2023-04-01T00:13:57;7.80;99.90
26037;DHT22;13810;48.376;10.944;2023-04-01T00:14:27;7.80;99.90
26037;DHT22;13810;48.376;10.944;2023-04-01T00:14:59;7.70;99.90
26037;DHT22;13810;48.376;10.944;2023-04-01T00:15:30;7.80;99.90
26037;DHT22;13810;48.376;10.944;2023-04-01T00:16:00;7.70;99.90
26037;DHT22;13810;48.376;10.944;2023-04-01T00:16:32;7.70;99.90
26037;DHT22;13810;48.376;10.944;2023-04-01T00:17:03;7.80;99.90
26037;DHT22;13810;48.376;10.944;2023-04-01T00:17:33;7.70;99.90
26037;DHT22;13810;48.376;10.944;2023-04-01T00:18:04;7.70;99.90
26037;DHT22;13810;48.376;10.944;2023-04-01T00:18:35;7.80;99.90
26037;DHT22;13810;48.376;10.944;2023-04-01T00:19:06;7.70;99.90
26037;DHT22;13810;48.376;10.944;2023-04-01T00:19:37;7.70;99.90
26037;DHT22;13810;48.376;10.944;2023-04-01T00:20:08;7.70;99.90
26037;DHT22;13810;48.376;10.944;2023-04-01T00:20:44;7.70;99.90
26037;DHT22;13810;48.376;10.944;2023-04-01T00:21:15;7.70;99.90
26037;DHT22;13810;48.376;10.944;2023-04-01T00:21:46;7.70;99.90
26037;DHT22;13810;48.376;10.944;2023-04-01T00:22:18;7.70;99.90
26037;DHT22;13810;48.376;10.944;2023-04-01T00:22:49;7.70;99.90
26037;DHT22;13810;48.376;10.944;2023-04-01T00:23:20;7.70;99.90
26037;DHT22;13810;48.376;10.944;2023-04-01T00:23:51;7.70;99.90
26037;DHT22;13810;48.376;10.944;2023-04-01T00:24:21;7.80;99.90
26037;DHT22;13810;48.376;10.944;2023-04-01T00:24:53;7.70;99.90
26037;DHT22;13810;48.376;10.944;2023-04-01T00:25:24;7.70;99.90
26037;DHT22;13810;48.376;10.944;2023-04-01T00:25:55;7.70;99.90
26037;DHT22;13810;48.376;10.944;2023-04-01T00:26:25;7.80;99.90
26037;DHT22;13810;48.376;10.944;2023-04-01T00:26:56;7.80;99.90
26037;DHT22;13810;48.376;10.944;2023-04-01T00:27:27;7.80;99.90
26037;DHT22;13810;48.376;10.944;2023-04-01T00:27:58;7.80;99.90
26037;DHT22;13810;48.376;10.944;2023-04-01T00:28:29;7.80;99.90
26037;DHT22;13810;48.376;10.944;2023-04-01T00:29:00;7.70;99.90
26037;DHT22;13810;48.376;10.944;2023-04-01T00:29:31;7.70;99.90
26037;DHT22;13810;48.376;10.944;2023-04-01T00:30:03;7.70;99.90
26037;DHT22;13810;48.376;10.944;2023-04-01T00:30:35;7.70;99.90
26037;DHT22;13810;48.376;10.944;2023-04-01T00:31:08;7.70;99.90
26037;DHT22;13810;48.376;10.944;2023-04-01T00:31:39;7.80;99.90
26037;DHT22;13810;48.376;10.944;2023-04-01T00:32:09;7.80;99.90
26037;DHT22;13810;48.376;10.944;2023-04-01T00:32:40;7.80;99.90
26037;DHT22;13810;48.376;10.944;2023-04-01T00:33:11;7.80;99.90
26037;DHT22;13810;48.376;10.944;2023-04-01T00:33:42;7.80;99.90
26037;DHT22;13810;48.376;10.944;2023-04-01T00:34:13;7.80;99.90
26037;DHT22;13810;48.376;10.944;2023-04-01T00:34:43;7.80;99.90
26037;DHT22;13810;48.376;10.944;2023-04-01T00:35:15;7.80;99.90
26037;DHT22;13810;48.376;10.944;2023-04-01T00:35:46;7.80;99.90
26037;DHT22;13810;48.376;10.944;2023-04-01T00:36:19;7.80;99.90
26037;DHT22;13810;48.376;10.944;2023-04-01T00:36:52;7.70;99.90
26037;DHT22;13810;48.376;10.944;2023-04-01T00:37:23;7.70;99.90
26037;DHT22;13810;48.376;10.944;2023-04-01T00:37:54;7.70;99.90
26037;DHT22;13810;48.376;10.944;2023-04-01T00:38:25;7.70;99.90
26037;DHT22;13810;48.376;10.944;2023-04-01T00:38:57;7.70;99.90
26037;DHT22;13810;48.376;10.944;2023-04-01T00:39:33;7.70;99.90
26037;DHT22;13810;48.376;10.944;2023-04-01T00:40:05;7.70;99.90
26037;DHT22;13810;48.376;10.944;2023-04-01T00:40:39;7.70;99.90
26037;DHT22;13810;48.376;10.944;2023-04-01T00:41:11;7.70;99.90
26037;DHT22;13810;48.376;10.944;2023-04-01T00:41:44;7.70;99.90
26037;DHT22;13810;48.376;10.944;2023-04-01T00:42:15;7.70;99.90
26037;DHT22;13810;48.376;10.944;2023-04-01T00:42:46;7.70;99.90
26037;DHT22;13810;48.376;10.944;2023-04-01T00:43:19;7.70;99.90
26037;DHT22;13810;48.376;10.944;2023-04-01T00:43:51;7.70;99.90
26037;DHT22;13810;48.376;10.944;2023-04-01T00:44:28;7.70;99.90
26037;DHT22;13810;48.376;10.944;2023-04-01T00:44:58;7.70;99.90
26037;DHT22;13810;48.376;10.944;2023-04-01T00:45:49;7.70;99.90
26037;DHT22;13810;48.376;10.944;2023-04-01T00:46:20;7.70;99.90
26037;DHT22;13810;48.376;10.944;2023-04-01T00:46:51;7.70;99.90
26037;DHT22;13810;48.376;10.944;2023-04-01T00:47:25;7.70;99.90
26037;DHT22;13810;48.376;10.944;2023-04-01T00:47:59;7.70;99.90
26037;DHT22;13810;48.376;10.944;2023-04-01T00:48:34;7.70;99.90
26037;DHT22;13810;48.376;10.944;2023-04-01T00:49:06;7.70;99.90
26037;DHT22;13810;48.376;10.944;2023-04-01T00:49:39;7.80;99.90
26037;DHT22;13810;48.376;10.944;2023-04-01T00:50:11;7.70;99.90
26037;DHT22;13810;48.376;10.944;2023-04-01T00:50:46;7.70;99.90
26037;DHT22;13810;48.376;10.944;2023-04-01T00:51:22;7.70;99.90
26037;DHT22;13810;48.376;10.944;2023-04-01T00:51:55;7.70;99.90
26037;DHT22;13810;48.376;10.944;2023-04-01T00:52:27;7.70;99.90
26037;DHT22;13810;48.376;10.944;2023-04-01T00:52:59;7.70;99.90
26037;DHT22;13810;48.376;10.944;2023-04-01T00:53:31;7.70;99.90
26037;DHT22;13810;48.376;10.944;2023-04-01T00:54:03;7.70;99.90
26037;DHT22;13810;48.376;10.944;2023-04-01T00:54:35;7.70;99.90
26037;DHT22;13810;48.376;10.944;2023-04-01T00:55:06;7.60;99.90
26037;DHT22;13810;48.376;10.944;2023-04-01T00:55:42;7.60;99.90
26037;DHT22;13810;48.376;10.944;2023-04-01T00:56:32;7.60;99.90
26037;DHT22;13810;48.376;10.944;2023-04-01T00:57:10;7.60;99.90
26037;DHT22;13810;48.376;10.944;2023-04-01T00:57:42;7.60;99.90
26037;DHT22;13810;48.376;10.944;2023-04-01T00:58:17;7.60;99.90
26037;DHT22;13810;48.376;10.944;2023-04-01T00:58:54;7.60;99.90
26037;DHT22;13810;48.376;10.944;2023-04-01T00:59:29;7.60;99.90
26037;DHT22;13810;48.376;10.944;2023-04-01T01:00:00;7.60;99.90
26037;DHT22;13810;48.376;10.944;2023-04-01T01:00:31;7.60;99.90
26037;DHT22;13810;48.376;10.944;2023-04-01T01:01:02;7.60;99.90
26037;DHT22;13810;48.376;10.944;2023-04-01T01:01:34;7.60;99.90
26037;DHT22;13810;48.376;10.944;2023-04-01T01:02:09;7.60;99.90
26037;DHT22;13810;48.376;10.944;2023-04-01T01:02:43;7.60;99.90
26037;DHT22;13810;48.376;10.944;2023-04-01T01:03:14;7.50;99.90
26037;DHT22;13810;48.376;10.944;2023-04-01T01:03:45;7.50;99.90
26037;DHT22;13810;48.376;10.944;2023-04-01T01:04:26;7.60;99.90
26037;DHT22;13810;48.376;10.944;2023-04-01T01:04:57;7.60;99.90
26037;DHT22;13810;48.376;10.944;2023-04-01T01:05:46;7.60;99.90
26037;DHT22;13810;48.376;10.944;2023-04-01T01:07:33;7.60;99.90
26037;DHT22;13810;48.376;10.944;2023-04-01T01:08:16;7.70;99.90
26037;DHT22;13810;48.376;10.944;2023-04-01T01:09:09;7.70;99.90
26037;DHT22;13810;48.376;10.944;2023-04-01T01:10:35;7.70;99.90
26037;DHT22;13810;48.376;10.944;2023-04-01T01:11:08;7.70;99.90
26037;DHT22;13810;48.376;10.944;2023-04-01T01:11:50;7.70;99.90
26037;DHT22;13810;48.376;10.944;2023-04-01T01:12:35;7.70;99.90
26037;DHT22;13810;48.376;10.944;2023-04-01T01:14:00;7.70;99.90
26037;DHT22;13810;48.376;10.944;2023-04-01T01:15:36;7.70;99.90
26037;DHT22;13810;48.376;10.944;2023-04-01T01:16:36;7.70;99.90
26037;DHT22;13810;48.376;10.944;2023-04-01T01:17:17;7.70;99.90
26037;DHT22;13810;48.376;10.944;2023-04-01T01:18:03;7.70;99.90
26037;DHT22;13810;48.376;10.944;2023-04-01T01:18:36;7.70;99.90
26037;DHT22;13810;48.376;10.944;2023-04-01T01:26:14;7.70;99.90
26037;DHT22;13810;48.376;10.944;2023-04-01T01:27:00;7.70;99.90
26037;DHT22;13810;48.376;10.944;2023-04-01T01:27:34;7.70;99.90
26037;DHT22;13810;48.376;10.944;2023-04-01T01:28:37;7.70;99.90
26037;DHT22;13810;48.376;10.944;2023-04-01T01:30:37;7.60;99.90
26037;DHT22;13810;48.376;10.944;2023-04-01T01:31:16;7.60;99.90
26037;DHT22;13810;48.376;10.944;2023-04-01T01:32:14;7.60;99.90
26037;DHT22;13810;48.376;10.944;2023-04-01T01:33:06;7.60;99.90
26037;DHT22;13810;48.376;10.944;2023-04-01T01:35:52;7.60;99.90
26037;DHT22;13810;48.376;10.944;2023-04-01T01:36:27;7.60;99.90
26037;DHT22;13810;48.376;10.944;2023-04-01T01:37:05;7.60;99.90
26037;DHT22;13810;48.376;10.944;2023-04-01T01:37:38;7.60;99.90
26037;DHT22;13810;48.376;10.944;2023-04-01T01:38:14;7.60;99.90
26037;DHT22;13810;48.376;10.944;2023-04-01T01:38:46;7.60;99.90
26037;DHT22;13810;48.376;10.944;2023-04-01T01:39:19;7.60;99.90
26037;DHT22;13810;48.376;10.944;2023-04-01T01:39:56;7.60;99.90
26037;DHT22;13810;48.376;10.944;2023-04-01T01:40:29;7.60;99.90
26037;DHT22;13810;48.376;10.944;2023-04-01T01:41:03;7.60;99.90
26037;DHT22;13810;48.376;10.944;2023-04-01T01:41:35;7.60;99.90
26037;DHT22;13810;48.376;10.944;2023-04-01T01:42:11;7.60;99.90
26037;DHT22;13810;48.376;10.944;2023-04-01T01:42:48;7.60;99.90
26037;DHT22;13810;48.376;10.944;2023-04-01T01:43:24;7.60;99.90
26037;DHT22;13810;48.376;10.944;2023-04-01T01:43:56;7.60;99.90
26037;DHT22;13810;48.376;10.944;2023-04-01T01:44:30;7.60;99.90
26037;DHT22;13810;48.376;10.944;2023-04-01T01:45:02;7.60;99.90
26037;DHT22;13810;48.376;10.944;2023-04-01T01:45:36;7.50;99.90
26037;DHT22;13810;48.376;10.944;2023-04-01T01:46:13;7.50;99.90
26037;DHT22;13810;48.376;10.944;2023-04-01T01:46:45;7.50;99.90
26037;DHT22;13810;48.376;10.944;2023-04-01T01:47:17;7.60;99.90
26037;DHT22;13810;48.376;10.944;2023-04-01T01:47:50;7.50;99.90
26037;DHT22;13810;48.376;10.944;2023-04-01T01:48:22;7.60;99.90
26037;DHT22;13810;48.376;10.944;2023-04-01T01:48:54;7.60;99.90
26037;DHT22;13810;48.376;10.944;2023-04-01T01:49:27;7.50;99.90
26037;DHT22;13810;48.376;10.944;2023-04-01T01:50:00;7.50;99.90
26037;DHT22;13810;48.376;10.944;2023-04-01T01:50:32;7.50;99.90
26037;DHT22;13810;48.376;10.944;2023-04-01T01:51:05;7.50;99.90
26037;DHT22;13810;48.376;10.944;2023-04-01T01:51:36;7.60;99.90
26037;DHT22;13810;48.376;10.944;2023-04-01T01:52:06;7.50;99.90
26037;DHT22;13810;48.376;10.944;2023-04-01T01:52:37;7.50;99.90
26037;DHT22;13810;48.376;10.944;2023-04-01T01:53:11;7.50;99.90
26037;DHT22;13810;48.376;10.944;2023-04-01T01:53:42;7.50;99.90
26037;DHT22;13810;48.376;10.944;2023-04-01T01:54:14;7.50;99.90
26037;DHT22;13810;48.376;10.944;2023-04-01T01:54:49;7.50;99.90
26037;DHT22;13810;48.376;10.944;2023-04-01T01:55:31;7.50;99.90
26037;DHT22;13810;48.376;10.944;2023-04-01T01:56:03;7.50;99.90
26037;DHT22;13810;48.376;10.944;2023-04-01T01:56:34;7.50;99.90
26037;DHT22;13810;48.376;10.944;2023-04-01T01:57:09;7.50;99.90
26037;DHT22;13810;48.376;10.944;2023-04-01T01:57:42;7.40;99.90
26037;DHT22;13810;48.376;10.944;2023-04-01T01:58:29;7.50;99.90
26037;DHT22;13810;48.376;10.944;2023-04-01T01:59:03;7.40;99.90
26037;DHT22;13810;48.376;10.944;2023-04-01T01:59:38;7.40;99.90
26037;DHT22;13810;48.376;10.944;2023-04-01T02:00:10;7.40;99.90
26037;DHT22;13810;48.376;10.944;2023-04-01T02:00:50;7.40;99.90
26037;DHT22;13810;48.376;10.944;2023-04-01T02:01:24;7.40;99.90
26037;DHT22;13810;48.376;10.944;2023-04-01T02:01:56;7.40;99.90
26037;DHT22;13810;48.376;10.944;2023-04-01T02:02:28;7.30;99.90
26037;DHT22;13810;48.376;10.944;2023-04-01T02:03:02;7.40;99.90
26037;DHT22;13810;48.376;10.944;2023-04-01T02:03:36;7.30;99.90
26037;DHT22;13810;48.376;10.944;2023-04-01T02:04:09;7.30;99.90
26037;DHT22;13810;48.376;10.944;2023-04-01T02:04:43;7.30;99.90
26037;DHT22;13810;48.376;10.944;2023-04-01T02:05:21;7.30;99.90
26037;DHT22;13810;48.376;10.944;2023-04-01T02:05:55;7.30;99.90
26037;DHT22;13810;48.376;10.944;2023-04-01T02:06:30;7.30;99.90
26037;DHT22;13810;48.376;10.944;2023-04-01T02:07:06;7.30;99.90
26037;DHT22;13810;48.376;10.944;2023-04-01T02:07:39;7.20;99.90
26037;DHT22;13810;48.376;10.944;2023-04-01T02:08:20;7.30;99.90
26037;DHT22;13810;48.376;10.944;2023-04-01T02:09:02;7.30;99.90
26037;DHT22;13810;48.376;10.944;2023-04-01T02:09:34;7.30;99.90
26037;DHT22;13810;48.376;10.944;2023-04-01T02:10:05;7.20;99.90
26037;DHT22;13810;48.376;10.944;2023-04-01T02:10:40;7.20;99.90
26037;DHT22;13810;48.376;10.944;2023-04-01T02:11:16;7.20;99.90
26037;DHT22;13810;48.376;10.944;2023-04-01T02:11:52;7.20;99.90
26037;DHT22;13810;48.376;10.944;2023-04-01T02:12:23;7.20;99.90
26037;DHT22;13810;48.376;10.944;2023-04-01T02:12:59;7.20;99.90
26037;DHT22;13810;48.376;10.944;2023-04-01T02:14:24;7.20;99.90
26037;DHT22;13810;48.376;10.944;2023-04-01T02:15:31;7.20;99.90
26037;DHT22;13810;48.376;10.944;2023-04-01T02:16:08;7.20;99.90
26037;DHT22;13810;48.376;10.944;2023-04-01T02:17:19;7.20;99.90
26037;DHT22;13810;48.376;10.944;2023-04-01T02:17:50;7.20;99.90
26037;DHT22;13810;48.376;10.944;2023-04-01T02:18:22;7.20;99.90
26037;DHT22;13810;48.376;10.944;2023-04-01T02:18:54;7.20;99.90
26037;DHT22;13810;48.376;10.944;2023-04-01T02:19:33;7.20;99.90
26037;DHT22;13810;48.376;10.944;2023-04-01T02:20:19;7.20;99.90
26037;DHT22;13810;48.376;10.944;2023-04-01T02:20:51;7.20;99.90
26037;DHT22;13810;48.376;10.944;2023-04-01T02:21:25;7.20;99.90
26037;DHT22;13810;48.376;10.944;2023-04-01T02:22:00;7.20;99.90
26037;DHT22;13810;48.376;10.944;2023-04-01T02:22:34;7.20;99.90
26037;DHT22;13810;48.376;10.944;2023-04-01T02:23:07;7.20;99.90
26037;DHT22;13810;48.376;10.944;2023-04-01T02:23:38;7.20;99.90
26037;DHT22;13810;48.376;10.944;2023-04-01T02:24:12;7.20;99.90
26037;DHT22;13810;48.376;10.944;2023-04-01T02:24:45;7.20;99.90
26037;DHT22;13810;48.376;10.944;2023-04-01T02:25:25;7.20;99.90
26037;DHT22;13810;48.376;10.944;2023-04-01T02:25:56;7.10;99.90
26037;DHT22;13810;48.376;10.944;2023-04-01T02:26:27;7.10;99.90
26037;DHT22;13810;48.376;10.944;2023-04-01T02:26:58;7.10;99.90
26037;DHT22;13810;48.376;10.944;2023-04-01T02:27:30;7.10;99.90
26037;DHT22;13810;48.376;10.944;2023-04-01T02:28:02;7.10;99.90
26037;DHT22;13810;48.376;10.944;2023-04-01T02:28:36;7.10;99.90
26037;DHT22;13810;48.376;10.944;2023-04-01T02:29:09;7.10;99.90
26037;DHT22;13810;48.376;10.944;2023-04-01T02:29:41;7.10;99.90
26037;DHT22;13810;48.376;10.944;2023-04-01T02:30:14;7.10;99.90
26037;DHT22;13810;48.376;10.944;2023-04-01T02:30:45;7.00;99.90
26037;DHT22;13810;48.376;10.944;2023-04-01T02:31:17;7.10;99.90
26037;DHT22;13810;48.376;10.944;2023-04-01T02:31:49;7.00;99.90
26037;DHT22;13810;48.376;10.944;2023-04-01T02:32:20;7.00;99.90
26037;DHT22;13810;48.376;10.944;2023-04-01T02:32:51;7.00;99.90
26037;DHT22;13810;48.376;10.944;2023-04-01T02:33:23;7.00;99.90
26037;DHT22;13810;48.376;10.944;2023-04-01T02:33:54;7.00;99.90
26037;DHT22;13810;48.376;10.944;2023-04-01T02:34:25;7.00;99.90
26037;DHT22;13810;48.376;10.944;2023-04-01T02:34:56;7.00;99.90
26037;DHT22;13810;48.376;10.944;2023-04-01T02:35:27;7.00;99.90
26037;DHT22;13810;48.376;10.944;2023-04-01T02:35:59;7.00;99.90
26037;DHT22;13810;48.376;10.944;2023-04-01T02:36:30;7.00;99.90
26037;DHT22;13810;48.376;10.944;2023-04-01T02:37:00;7.00;99.90
26037;DHT22;13810;48.376;10.944;2023-04-01T02:37:32;7.00;99.90
26037;DHT22;13810;48.376;10.944;2023-04-01T02:38:03;7.00;99.90
26037;DHT22;13810;48.376;10.944;2023-04-01T02:38:35;7.00;99.90
26037;DHT22;13810;48.376;10.944;2023-04-01T02:39:08;7.00;99.90
26037;DHT22;13810;48.376;10.944;2023-04-01T02:39:38;7.00;99.90
26037;DHT22;13810;48.376;10.944;2023-04-01T02:40:12;7.00;99.90
26037;DHT22;13810;48.376;10.944;2023-04-01T02:40:52;7.00;99.90
26037;DHT22;13810;48.376;10.944;2023-04-01T02:41:26;7.00;99.90
26037;DHT22;13810;48.376;10.944;2023-04-01T02:41:57;7.00;99.90
26037;DHT22;13810;48.376;10.944;2023-04-01T02:42:28;7.00;99.90
26037;DHT22;13810;48.376;10.944;2023-04-01T02:42:58;7.00;99.90
26037;DHT22;13810;48.376;10.944;2023-04-01T02:43:29;7.00;99.90
26037;DHT22;13810;48.376;10.944;2023-04-01T02:44:00;7.00;99.90
26037;DHT22;13810;48.376;10.944;2023-04-01T02:44:30;6.90;99.90
26037;DHT22;13810;48.376;10.944;2023-04-01T02:45:02;7.00;99.90
26037;DHT22;13810;48.376;10.944;2023-04-01T02:45:33;6.90;99.90
26037;DHT22;13810;48.376;10.944;2023-04-01T02:46:04;6.90;99.90
26037;DHT22;13810;48.376;10.944;2023-04-01T02:46:35;6.90;99.90
26037;DHT22;13810;48.376;10.944;2023-04-01T02:47:06;6.90;99.90
26037;DHT22;13810;48.376;10.944;2023-04-01T02:47:37;6.90;99.90
26037;DHT22;13810;48.376;10.944;2023-04-01T02:48:08;6.90;99.90
26037;DHT22;13810;48.376;10.944;2023-04-01T02:48:38;6.90;99.90
26037;DHT22;13810;48.376;10.944;2023-04-01T02:49:09;6.90;99.90
26037;DHT22;13810;48.376;10.944;2023-04-01T02:49:40;6.90;99.90
26037;DHT22;13810;48.376;10.944;2023-04-01T02:50:12;6.90;99.90
26037;DHT22;13810;48.376;10.944;2023-04-01T02:50:42;6.90;99.90
26037;DHT22;13810;48.376;10.944;2023-04-01T02:51:13;6.90;99.90
26037;DHT22;13810;48.376;10.944;2023-04-01T02:51:43;6.90;99.90
26037;DHT22;13810;48.376;10.944;2023-04-01T02:52:14;6.90;99.90
26037;DHT22;13810;48.376;10.944;2023-04-01T02:52:45;6.80;99.90
26037;DHT22;13810;48.376;10.944;2023-04-01T02:53:16;6.90;99.90
26037;DHT22;13810;48.376;10.944;2023-04-01T02:53:47;6.80;99.90
26037;DHT22;13810;48.376;10.944;2023-04-01T02:54:18;6.90;99.90
26037;DHT22;13810;48.376;10.944;2023-04-01T02:54:49;6.90;99.90
26037;DHT22;13810;48.376;10.944;2023-04-01T02:55:20;6.80;99.90
26037;DHT22;13810;48.376;10.944;2023-04-01T02:55:50;6.80;99.90
26037;DHT22;13810;48.376;10.944;2023-04-01T02:56:22;6.80;99.90
26037;DHT22;13810;48.376;10.944;2023-04-01T02:56:52;6.80;99.90
26037;DHT22;13810;48.376;10.944;2023-04-01T02:57:24;6.80;99.90
26037;DHT22;13810;48.376;10.944;2023-04-01T02:57:55;6.80;99.90
26037;DHT22;13810;48.376;10.944;2023-04-01T02:58:25;6.80;99.90
26037;DHT22;13810;48.376;10.944;2023-04-01T02:58:56;6.80;99.90
26037;DHT22;13810;48.376;10.944;2023-04-01T02:59:26;6.80;99.90
26037;DHT22;13810;48.376;10.944;2023-04-01T02:59:57;6.80;99.90
26037;DHT22;13810;48.376;10.944;2023-04-01T03:00:28;6.80;99.90
26037;DHT22;13810;48.376;10.944;2023-04-01T03:00:58;6.80;99.90
26037;DHT22;13810;48.376;10.944;2023-04-01T03:01:29;6.80;99.90
26037;DHT22;13810;48.376;10.944;2023-04-01T03:02:00;6.80;99.90
26037;DHT22;13810;48.376;10.944;2023-04-01T03:02:31;6.80;99.90
26037;DHT22;13810;48.376;10.944;2023-04-01T03:03:01;6.80;99.90
26037;DHT22;13810;48.376;10.944;2023-04-01T03:03:33;6.80;99.90
26037;DHT22;13810;48.376;10.944;2023-04-01T03:04:04;6.80;99.90
26037;DHT22;13810;48.376;10.944;2023-04-01T03:04:35;6.80;99.90
26037;DHT22;13810;48.376;10.944;2023-04-01T03:05:06;6.70;99.90
26037;DHT22;13810;48.376;10.944;2023-04-01T03:05:37;6.70;99.90
26037;DHT22;13810;48.376;10.944;2023-04-01T03:06:10;6.70;99.90
26037;DHT22;13810;48.376;10.944;2023-04-01T03:06:41;6.70;99.90
26037;DHT22;13810;48.376;10.944;2023-04-01T03:07:12;6.70;99.90
26037;DHT22;13810;48.376;10.944;2023-04-01T03:07:43;6.70;99.90
26037;DHT22;13810;48.376;10.944;2023-04-01T03:08:14;6.70;99.90
26037;DHT22;13810;48.376;10.944;2023-04-01T03:08:45;6.70;99.90
26037;DHT22;13810;48.376;10.944;2023-04-01T03:09:16;6.70;99.90
26037;DHT22;13810;48.376;10.944;2023-04-01T03:09:47;6.70;99.90
26037;DHT22;13810;48.376;10.944;2023-04-01T03:10:17;6.70;99.90
26037;DHT22;13810;48.376;10.944;2023-04-01T03:10:48;6.70;99.90
26037;DHT22;13810;48.376;10.944;2023-04-01T03:11:19;6.70;99.90
26037;DHT22;13810;48.376;10.944;2023-04-01T03:11:50;6.70;99.90
26037;DHT22;13810;48.376;10.944;2023-04-01T03:12:20;6.70;99.90
26037;DHT22;13810;48.376;10.944;2023-04-01T03:12:51;6.70;99.90
26037;DHT22;13810;48.376;10.944;2023-04-01T03:13:22;6.70;99.90
26037;DHT22;13810;48.376;10.944;2023-04-01T03:13:52;6.70;99.90
26037;DHT22;13810;48.376;10.944;2023-04-01T03:14:23;6.70;99.90
26037;DHT22;13810;48.376;10.944;2023-04-01T03:14:53;6.70;99.90
26037;DHT22;13810;48.376;10.944;2023-04-01T03:15:24;6.70;99.90
26037;DHT22;13810;48.376;10.944;2023-04-01T03:15:55;6.70;99.90
26037;DHT22;13810;48.376;10.944;2023-04-01T03:16:26;6.70;99.90
26037;DHT22;13810;48.376;10.944;2023-04-01T03:16:56;6.60;99.90
26037;DHT22;13810;48.376;10.944;2023-04-01T03:17:27;6.60;99.90
26037;DHT22;13810;48.376;10.944;2023-04-01T03:17:58;6.60;99.90
26037;DHT22;13810;48.376;10.944;2023-04-01T03:18:28;6.60;99.90
26037;DHT22;13810;48.376;10.944;2023-04-01T03:18:59;6.60;99.90
26037;DHT22;13810;48.376;10.944;2023-04-01T03:19:32;6.70;99.90
26037;DHT22;13810;48.376;10.944;2023-04-01T03:20:03;6.70;99.90
26037;DHT22;13810;48.376;10.944;2023-04-01T03:20:35;6.70;99.90
26037;DHT22;13810;48.376;10.944;2023-04-01T03:21:16;6.70;99.90
26037;DHT22;13810;48.376;10.944;2023-04-01T03:21:47;6.70;99.90
26037;DHT22;13810;48.376;10.944;2023-04-01T03:22:17;6.70;99.90
26037;DHT22;13810;48.376;10.944;2023-04-01T03:22:51;6.60;99.90
26037;DHT22;13810;48.376;10.944;2023-04-01T03:23:21;6.60;99.90
26037;DHT22;13810;48.376;10.944;2023-04-01T03:23:54;6.60;99.90
26037;DHT22;13810;48.376;10.944;2023-04-01T03:24:25;6.60;99.90
26037;DHT22;13810;48.376;10.944;2023-04-01T03:24:55;6.60;99.90
26037;DHT22;13810;48.376;10.944;2023-04-01T03:25:26;6.70;99.90
26037;DHT22;13810;48.376;10.944;2023-04-01T03:25:58;6.70;99.90
26037;DHT22;13810;48.376;10.944;2023-04-01T03:26:29;6.70;99.90
26037;DHT22;13810;48.376;10.944;2023-04-01T03:27:00;6.70;99.90
26037;DHT22;13810;48.376;10.944;2023-04-01T03:27:31;6.70;99.90
26037;DHT22;13810;48.376;10.944;2023-04-01T03:28:02;6.70;99.90
26037;DHT22;13810;48.376;10.944;2023-04-01T03:28:32;6.70;99.90
26037;DHT22;13810;48.376;10.944;2023-04-01T03:29:03;6.70;99.90
26037;DHT22;13810;48.376;10.944;2023-04-01T03:29:34;6.70;99.90
26037;DHT22;13810;48.376;10.944;2023-04-01T03:30:05;6.70;99.90
26037;DHT22;13810;48.376;10.944;2023-04-01T03:30:36;6.70;99.90
26037;DHT22;13810;48.376;10.944;2023-04-01T03:31:07;6.70;99.90
26037;DHT22;13810;48.376;10.944;2023-04-01T03:31:38;6.70;99.90
26037;DHT22;13810;48.376;10.944;2023-04-01T03:32:08;6.80;99.90
26037;DHT22;13810;48.376;10.944;2023-04-01T03:32:39;6.70;99.90
26037;DHT22;13810;48.376;10.944;2023-04-01T03:33:10;6.70;99.90
26037;DHT22;13810;48.376;10.944;2023-04-01T03:33:40;6.80;99.90
26037;DHT22;13810;48.376;10.944;2023-04-01T03:34:11;6.80;99.90
26037;DHT22;13810;48.376;10.944;2023-04-01T03:34:42;6.80;99.90
26037;DHT22;13810;48.376;10.944;2023-04-01T03:35:12;6.80;99.90
26037;DHT22;13810;48.376;10.944;2023-04-01T03:35:43;6.80;99.90
26037;DHT22;13810;48.376;10.944;2023-04-01T03:36:13;6.80;99.90
26037;DHT22;13810;48.376;10.944;2023-04-01T03:36:44;6.70;99.90
26037;DHT22;13810;48.376;10.944;2023-04-01T03:37:15;6.80;99.90
26037;DHT22;13810;48.376;10.944;2023-04-01T03:37:45;6.80;99.90
26037;DHT22;13810;48.376;10.944;2023-04-01T03:38:16;6.80;99.90
26037;DHT22;13810;48.376;10.944;2023-04-01T03:38:47;6.80;99.90
26037;DHT22;13810;48.376;10.944;2023-04-01T03:39:17;6.80;99.90
26037;DHT22;13810;48.376;10.944;2023-04-01T03:39:51;6.80;99.90
26037;DHT22;13810;48.376;10.944;2023-04-01T03:40:22;6.80;99.90
26037;DHT22;13810;48.376;10.944;2023-04-01T03:40:53;6.80;99.90
26037;DHT22;13810;48.376;10.944;2023-04-01T03:41:23;6.80;99.90
26037;DHT22;13810;48.376;10.944;2023-04-01T03:41:54;6.80;99.90
26037;DHT22;13810;48.376;10.944;2023-04-01T03:42:25;6.80;99.90
26037;DHT22;13810;48.376;10.944;2023-04-01T03:42:55;6.80;99.90
26037;DHT22;13810;48.376;10.944;2023-04-01T03:43:26;6.80;99.90
26037;DHT22;13810;48.376;10.944;2023-04-01T03:43:57;6.80;99.90